Time,TemperatureF,DewpointF,PressureIn,WindDirection,WindDirectionDegrees,WindSpeedMPH,WindSpeedGustMPH,Humidity,HourlyPrecipIn,Conditions,Clouds,dailyrainin,SoftwareType,DateUTC
2013-07-27 00:00:00,66.5,64.7,29.96,South,172,7.0,7.0,94,0.00,,,0.00,Wunderground v.1.15,2013-07-27 04:00:00,
2013-07-27 00:05:00,66.5,64.7,29.96,SE,144,7.0,7.0,94,0.00,,,0.00,Wunderground v.1.15,2013-07-27 04:05:00,
2013-07-27 00:10:00,66.4,64.6,29.96,South,172,7.0,7.0,94,0.00,,,0.00,Wunderground v.1.15,2013-07-27 04:10:00,
2013-07-27 00:15:00,66.4,64.6,29.96,South,187,7.0,7.0,94,0.00,,,0.00,Wunderground v.1.15,2013-07-27 04:15:00,
2013-07-27 00:20:00,66.4,64.6,29.96,South,176,6.0,7.0,94,0.00,,,0.00,Wunderground v.1.15,2013-07-27 04:20:00,
2013-07-27 00:30:00,66.4,64.6,29.96,South,181,7.0,7.0,94,0.00,,,0.00,Wunderground v.1.15,2013-07-27 04:30:00,
2013-07-27 00:40:00,66.4,64.6,29.96,SSE,161,7.0,7.0,94,0.00,,,0.00,Wunderground v.1.15,2013-07-27 04:40:00,
2013-07-27 00:45:00,66.5,64.7,29.96,SSE,162,6.0,9.0,94,0.00,,,0.00,Wunderground v.1.15,2013-07-27 04:45:00,
2013-07-27 00:50:00,66.5,64.7,29.96,SSE,161,6.0,7.0,94,0.00,,,0.00,Wunderground v.1.15,2013-07-27 04:50:00,
2013-07-27 01:00:00,66.7,65.2,29.96,SSE,166,6.0,6.0,95,0.00,,,0.00,Wunderground v.1.15,2013-07-27 05:00:00,
2013-07-27 01:10:00,67.0,65.5,29.96,South,177,6.0,6.0,95,0.00,,,0.00,Wunderground v.1.15,2013-07-27 05:10:00,
2013-07-27 01:20:00,67.0,65.5,29.96,South,179,6.0,6.0,95,0.00,,,0.00,Wunderground v.1.15,2013-07-27 05:20:00,
2013-07-27 01:30:00,67.1,65.6,29.95,SSW,205,6.0,6.0,95,0.00,,,0.00,Wunderground v.1.15,2013-07-27 05:30:00,
2013-07-27 01:40:00,67.2,65.7,29.95,South,187,7.0,7.0,95,0.00,,,0.00,Wunderground v.1.15,2013-07-27 05:40:00,
2013-07-27 01:50:00,67.2,65.7,29.95,South,178,6.0,6.0,95,0.00,,,0.00,Wunderground v.1.15,2013-07-27 05:50:00,
2013-07-27 02:00:00,67.2,65.7,29.95,South,173,6.0,10.0,95,0.00,,,0.00,Wunderground v.1.15,2013-07-27 06:00:00,
2013-07-27 02:10:00,67.4,65.9,29.95,SSW,210,6.0,12.0,95,0.00,,,0.00,Wunderground v.1.15,2013-07-27 06:10:00,
2013-07-27 02:20:00,67.5,66.0,29.95,SSW,194,5.0,5.0,95,0.00,,,0.00,Wunderground v.1.15,2013-07-27 06:20:00,
2013-07-27 02:30:00,67.4,65.9,29.94,SSW,207,5.0,11.0,95,0.00,,,0.00,Wunderground v.1.15,2013-07-27 06:30:00,
2013-07-27 02:40:00,67.3,65.8,29.94,South,186,6.0,6.0,95,0.00,,,0.00,Wunderground v.1.15,2013-07-27 06:40:00,
2013-07-27 02:50:00,67.2,65.7,29.94,South,185,5.0,5.0,95,0.00,,,0.00,Wunderground v.1.15,2013-07-27 06:50:00,
2013-07-27 03:00:00,67.2,65.7,29.94,South,187,6.0,6.0,95,0.00,,,0.00,Wunderground v.1.15,2013-07-27 07:00:00,
2013-07-27 03:10:00,67.1,65.6,29.94,South,183,6.0,6.0,95,0.00,,,0.00,Wunderground v.1.15,2013-07-27 07:10:00,
2013-07-27 03:20:00,67.0,65.5,29.94,SE,144,5.0,5.0,95,0.00,,,0.00,Wunderground v.1.15,2013-07-27 07:20:00,
2013-07-27 03:30:00,66.8,65.3,29.94,SSE,156,5.0,5.0,95,0.00,,,0.00,Wunderground v.1.15,2013-07-27 07:30:00,
2013-07-27 03:40:00,66.7,65.2,29.94,South,184,5.0,5.0,95,0.00,,,0.00,Wunderground v.1.15,2013-07-27 07:40:00,
2013-07-27 03:50:00,66.7,65.2,29.94,South,173,5.0,7.0,95,0.00,,,0.00,Wunderground v.1.15,2013-07-27 07:50:00,
2013-07-27 04:00:00,66.6,65.1,29.94,South,174,4.0,5.0,95,0.00,,,0.00,Wunderground v.1.15,2013-07-27 08:00:00,
2013-07-27 04:10:00,66.3,64.8,29.94,SE,139,5.0,5.0,95,0.00,,,0.00,Wunderground v.1.15,2013-07-27 08:10:00,
2013-07-27 04:20:00,66.2,64.7,29.94,South,181,5.0,5.0,95,0.00,,,0.00,Wunderground v.1.15,2013-07-27 08:20:00,
2013-07-27 04:30:00,66.1,64.6,29.94,South,181,5.0,5.0,95,0.00,,,0.00,Wunderground v.1.15,2013-07-27 08:30:00,
2013-07-27 04:40:00,66.0,64.5,29.94,SSW,195,5.0,5.0,95,0.00,,,0.00,Wunderground v.1.15,2013-07-27 08:40:00,
2013-07-27 04:50:00,65.8,64.3,29.94,South,170,5.0,5.0,95,0.00,,,0.00,Wunderground v.1.15,2013-07-27 08:50:00,
2013-07-27 05:00:00,65.9,64.4,29.94,South,174,5.0,5.0,95,0.00,,,0.00,Wunderground v.1.15,2013-07-27 09:00:00,
2013-07-27 05:10:00,65.5,64.0,29.94,SSE,162,5.0,6.0,95,0.00,,,0.00,Wunderground v.1.15,2013-07-27 09:10:00,
2013-07-27 05:20:00,65.3,63.8,29.94,SSE,165,6.0,10.0,95,0.00,,,0.00,Wunderground v.1.15,2013-07-27 09:20:00,
2013-07-27 05:30:00,65.0,63.5,29.95,South,189,6.0,6.0,95,0.00,,,0.00,Wunderground v.1.15,2013-07-27 09:30:00,
2013-07-27 05:40:00,64.8,63.3,29.95,South,172,5.0,5.0,95,0.00,,,0.00,Wunderground v.1.15,2013-07-27 09:40:00,
2013-07-27 05:50:00,64.7,63.2,29.94,South,179,5.0,5.0,95,0.00,,,0.00,Wunderground v.1.15,2013-07-27 09:50:00,
2013-07-27 06:00:00,64.7,63.2,29.95,SSE,165,6.0,6.0,95,0.00,,,0.00,Wunderground v.1.15,2013-07-27 10:00:00,
2013-07-27 06:10:00,65.0,63.5,29.95,South,170,6.0,6.0,95,0.00,,,0.00,Wunderground v.1.15,2013-07-27 10:10:00,
2013-07-27 06:20:00,64.9,63.4,29.95,South,172,6.0,11.0,95,0.00,,,0.00,Wunderground v.1.15,2013-07-27 10:20:00,
2013-07-27 06:30:00,65.1,63.6,29.96,SSE,156,6.0,7.0,95,0.00,,,0.00,Wunderground v.1.15,2013-07-27 10:30:00,
2013-07-27 06:40:00,65.3,63.8,29.95,South,189,5.0,5.0,95,0.00,,,0.00,Wunderground v.1.15,2013-07-27 10:40:00,
2013-07-27 06:50:00,65.5,64.0,29.95,South,183,6.0,7.0,95,0.00,,,0.00,Wunderground v.1.15,2013-07-27 10:50:00,
2013-07-27 07:00:00,65.9,64.7,29.95,South,182,6.0,6.0,96,0.00,,,0.00,Wunderground v.1.15,2013-07-27 11:00:00,
2013-07-27 07:10:00,66.4,65.2,29.95,SSW,194,5.0,5.0,96,0.00,,,0.00,Wunderground v.1.15,2013-07-27 11:10:00,
2013-07-27 07:20:00,66.5,65.3,29.95,SSW,194,5.0,5.0,96,0.00,,,0.00,Wunderground v.1.15,2013-07-27 11:20:00,
2013-07-27 07:30:00,66.8,65.3,29.96,SSW,212,4.0,4.0,95,0.00,,,0.00,Wunderground v.1.15,2013-07-27 11:30:00,
2013-07-27 07:40:00,67.2,66.0,29.96,SSE,164,3.0,3.0,96,0.00,,,0.00,Wunderground v.1.15,2013-07-27 11:40:00,
2013-07-27 07:50:00,67.9,66.4,29.96,SSW,202,3.0,3.0,95,0.00,,,0.00,Wunderground v.1.15,2013-07-27 11:50:00,
2013-07-27 08:00:00,69.0,67.5,29.96,SSW,195,4.0,4.0,95,0.00,,,0.00,Wunderground v.1.15,2013-07-27 12:00:00,
2013-07-27 08:10:00,70.2,68.1,29.96,SSW,196,4.0,8.0,93,0.00,,,0.00,Wunderground v.1.15,2013-07-27 12:10:00,
2013-07-27 08:20:00,71.4,67.7,29.96,SSW,192,7.0,7.0,88,0.00,,,0.00,Wunderground v.1.15,2013-07-27 12:20:00,
2013-07-27 08:30:00,72.3,67.9,29.97,South,190,6.0,6.0,86,0.00,,,0.00,Wunderground v.1.15,2013-07-27 12:30:00,
2013-07-27 08:40:00,73.5,68.4,29.97,NW,326,3.0,3.0,84,0.00,,,0.00,Wunderground v.1.15,2013-07-27 12:40:00,
2013-07-27 08:50:00,74.7,68.8,29.97,South,185,3.0,3.0,82,0.00,,,0.00,Wunderground v.1.15,2013-07-27 12:50:00,
2013-07-27 09:00:00,75.9,68.5,29.97,SSW,197,3.0,5.0,78,0.00,,,0.00,Wunderground v.1.15,2013-07-27 13:00:00,
2013-07-27 09:10:00,76.2,68.5,29.97,SW,227,4.0,4.0,77,0.00,,,0.00,Wunderground v.1.15,2013-07-27 13:10:00,
2013-07-27 09:20:00,76.3,67.8,29.97,South,189,3.0,3.0,75,0.00,,,0.00,Wunderground v.1.15,2013-07-27 13:20:00,
2013-07-27 09:30:00,76.5,68.4,29.97,SW,214,4.0,4.0,76,0.00,,,0.00,Wunderground v.1.15,2013-07-27 13:30:00,
2013-07-27 09:40:00,76.7,68.2,29.97,NNW,341,3.0,3.0,75,0.00,,,0.00,Wunderground v.1.15,2013-07-27 13:40:00,
2013-07-27 09:50:00,76.6,68.8,29.97,SW,222,2.0,2.0,77,0.00,,,0.00,Wunderground v.1.15,2013-07-27 13:50:00,
2013-07-27 10:00:00,76.4,68.3,29.97,South,171,3.0,3.0,76,0.00,,,0.00,Wunderground v.1.15,2013-07-27 14:00:00,
2013-07-27 10:10:00,76.0,67.9,29.98,SSW,201,3.0,4.0,76,0.00,,,0.00,Wunderground v.1.15,2013-07-27 14:10:00,
2013-07-27 10:20:00,75.9,68.9,29.98,NW,312,2.0,2.0,79,0.00,,,0.00,Wunderground v.1.15,2013-07-27 14:20:00,
2013-07-27 10:30:00,75.1,68.1,29.97,NNE,23,2.0,2.0,79,0.00,,,0.00,Wunderground v.1.15,2013-07-27 14:30:00,
2013-07-27 10:40:00,74.4,67.8,29.97,NNW,330,2.0,4.0,80,0.00,,,0.00,Wunderground v.1.15,2013-07-27 14:40:00,
2013-07-27 10:50:00,73.8,68.0,29.97,NNE,24,2.0,2.0,82,0.00,,,0.00,Wunderground v.1.15,2013-07-27 14:50:00,
2013-07-27 11:00:00,73.6,68.5,29.98,NNE,16,2.0,3.0,84,0.00,,,0.00,Wunderground v.1.15,2013-07-27 15:00:00,
2013-07-27 11:10:00,73.9,69.1,29.98,NNW,328,2.0,2.0,85,0.00,,,0.00,Wunderground v.1.15,2013-07-27 15:10:00,
2013-07-27 11:20:00,74.1,68.6,29.98,NNE,25,3.0,4.0,83,0.00,,,0.00,Wunderground v.1.15,2013-07-27 15:20:00,
2013-07-27 11:30:00,73.7,68.2,29.98,NE,46,2.0,4.0,83,0.00,,,0.00,Wunderground v.1.15,2013-07-27 15:30:00,
2013-07-27 11:40:00,73.3,68.2,29.97,NNE,16,3.0,5.0,84,0.00,,,0.00,Wunderground v.1.15,2013-07-27 15:40:00,
2013-07-27 11:50:00,74.0,69.5,29.97,NW,319,2.0,2.0,86,0.00,,,0.00,Wunderground v.1.15,2013-07-27 15:50:00,
2013-07-27 12:00:00,73.7,68.9,29.98,NE,37,3.0,3.0,85,0.00,,,0.00,Wunderground v.1.15,2013-07-27 16:00:00,
2013-07-27 12:10:00,74.5,69.3,29.98,NE,37,2.0,2.0,84,0.00,,,0.00,Wunderground v.1.15,2013-07-27 16:10:00,
2013-07-27 12:20:00,76.1,69.8,29.98,North,356,4.0,4.0,81,0.00,,,0.00,Wunderground v.1.15,2013-07-27 16:20:00,
2013-07-27 12:30:00,76.4,70.1,29.97,South,171,3.0,4.0,81,0.00,,,0.00,Wunderground v.1.15,2013-07-27 16:30:00,
2013-07-27 12:40:00,76.9,67.2,29.97,SW,217,4.0,10.0,72,0.00,,,0.00,Wunderground v.1.15,2013-07-27 16:40:00,
2013-07-27 12:50:00,79.4,66.2,29.97,South,184,5.0,5.0,64,0.00,,,0.00,Wunderground v.1.15,2013-07-27 16:50:00,
2013-07-27 13:00:00,79.7,65.5,29.97,WSW,250,6.0,6.0,62,0.00,,,0.00,Wunderground v.1.15,2013-07-27 17:00:00,
2013-07-27 13:10:00,79.6,67.7,29.96,ESE,122,4.0,6.0,67,0.00,,,0.00,Wunderground v.1.15,2013-07-27 17:10:00,
2013-07-27 13:20:00,80.1,66.8,29.96,SSW,212,4.0,4.0,64,0.00,,,0.00,Wunderground v.1.15,2013-07-27 17:20:00,
2013-07-27 13:30:00,79.3,66.1,29.96,SSE,155,5.0,7.0,64,0.00,,,0.00,Wunderground v.1.15,2013-07-27 17:30:00,
2013-07-27 13:40:00,79.1,67.6,29.95,SSE,152,4.0,4.0,68,0.00,,,0.00,Wunderground v.1.15,2013-07-27 17:40:00,
2013-07-27 13:50:00,80.2,66.9,29.95,SSW,194,4.0,7.0,64,0.00,,,0.00,Wunderground v.1.15,2013-07-27 17:50:00,
2013-07-27 14:00:00,80.4,67.6,29.95,SE,133,4.0,4.0,65,0.00,,,0.00,Wunderground v.1.15,2013-07-27 18:00:00,
2013-07-27 14:10:00,81.2,67.4,29.95,South,172,5.0,6.0,63,0.00,,,0.00,Wunderground v.1.15,2013-07-27 18:10:00,
2013-07-27 14:20:00,82.3,66.5,29.95,South,175,6.0,9.0,59,0.00,,,0.00,Wunderground v.1.15,2013-07-27 18:20:00,
2013-07-27 14:30:00,81.6,67.8,29.95,ESE,107,6.0,6.0,63,0.00,,,0.00,Wunderground v.1.15,2013-07-27 18:30:00,
2013-07-27 14:40:00,81.4,68.1,29.95,South,176,5.0,5.0,64,0.00,,,0.00,Wunderground v.1.15,2013-07-27 18:40:00,
2013-07-27 14:50:00,80.6,68.2,29.95,SE,129,5.0,5.0,66,0.00,,,0.00,Wunderground v.1.15,2013-07-27 18:50:00,
2013-07-27 15:00:00,80.7,68.7,29.95,SSW,193,5.0,6.0,67,0.00,,,0.00,Wunderground v.1.15,2013-07-27 19:00:00,
2013-07-27 15:10:00,81.8,69.8,29.94,SSW,195,6.0,10.0,67,0.00,,,0.00,Wunderground v.1.15,2013-07-27 19:10:00,
2013-07-27 15:20:00,81.8,68.9,29.94,SW,216,5.0,5.0,65,0.00,,,0.00,Wunderground v.1.15,2013-07-27 19:20:00,
2013-07-27 15:30:00,81.5,68.6,29.94,South,183,5.0,5.0,65,0.00,,,0.00,Wunderground v.1.15,2013-07-27 19:30:00,
2013-07-27 15:40:00,81.2,68.8,29.94,South,183,5.0,9.0,66,0.00,,,0.00,Wunderground v.1.15,2013-07-27 19:40:00,
2013-07-27 15:50:00,81.9,68.1,29.94,SW,214,4.0,4.0,63,0.00,,,0.00,Wunderground v.1.15,2013-07-27 19:50:00,
2013-07-27 16:00:00,81.0,67.2,29.94,SSE,163,5.0,5.0,63,0.00,,,0.00,Wunderground v.1.15,2013-07-27 20:00:00,
2013-07-27 16:10:00,81.0,66.3,29.94,South,181,6.0,9.0,61,0.00,,,0.00,Wunderground v.1.15,2013-07-27 20:10:00,
2013-07-27 16:20:00,80.8,66.6,29.94,SSE,164,4.0,7.0,62,0.00,,,0.00,Wunderground v.1.15,2013-07-27 20:20:00,
2013-07-27 16:30:00,80.4,66.6,29.93,NW,322,4.0,4.0,63,0.00,,,0.00,Wunderground v.1.15,2013-07-27 20:30:00,
2013-07-27 16:40:00,80.3,67.0,29.93,South,181,5.0,5.0,64,0.00,,,0.00,Wunderground v.1.15,2013-07-27 20:40:00,
2013-07-27 16:50:00,80.2,68.2,29.93,South,174,5.0,6.0,67,0.00,,,0.00,Wunderground v.1.15,2013-07-27 20:50:00,
2013-07-27 17:00:00,80.2,67.4,29.92,SSE,160,5.0,5.0,65,0.00,,,0.00,Wunderground v.1.15,2013-07-27 21:00:00,
2013-07-27 17:10:00,79.4,66.2,29.92,South,174,5.0,5.0,64,0.00,,,0.00,Wunderground v.1.15,2013-07-27 21:10:00,
2013-07-27 17:20:00,79.0,66.2,29.92,South,174,4.0,4.0,65,0.00,,,0.00,Wunderground v.1.15,2013-07-27 21:20:00,
2013-07-27 17:30:00,79.0,66.2,29.92,East,99,4.0,6.0,65,0.00,,,0.00,Wunderground v.1.15,2013-07-27 21:30:00,
2013-07-27 17:40:00,79.0,65.3,29.91,SE,135,5.0,5.0,63,0.00,,,0.00,Wunderground v.1.15,2013-07-27 21:40:00,
2013-07-27 17:50:00,78.6,64.9,29.91,SE,139,4.0,5.0,63,0.00,,,0.00,Wunderground v.1.15,2013-07-27 21:50:00,
2013-07-27 18:00:00,77.9,65.6,29.91,SSE,166,5.0,5.0,66,0.00,,,0.00,Wunderground v.1.15,2013-07-27 22:00:00,
2013-07-27 18:10:00,77.8,65.1,29.91,South,189,5.0,6.0,65,0.00,,,0.00,Wunderground v.1.15,2013-07-27 22:10:00,
2013-07-27 18:20:00,77.0,64.3,29.91,ENE,65,5.0,5.0,65,0.00,,,0.00,Wunderground v.1.15,2013-07-27 22:20:00,
2013-07-27 18:30:00,76.2,64.0,29.91,SE,138,5.0,6.0,66,0.00,,,0.00,Wunderground v.1.15,2013-07-27 22:30:00,
2013-07-27 18:40:00,75.6,64.7,29.91,SE,129,4.0,4.0,69,0.00,,,0.00,Wunderground v.1.15,2013-07-27 22:40:00,
2013-07-27 18:50:00,75.1,65.1,29.91,SE,129,4.0,4.0,71,0.00,,,0.00,Wunderground v.1.15,2013-07-27 22:50:00,
2013-07-27 19:00:00,74.7,66.2,29.91,South,183,4.0,4.0,75,0.00,,,0.00,Wunderground v.1.15,2013-07-27 23:00:00,
2013-07-27 19:10:00,74.4,66.7,29.91,ESE,116,4.0,4.0,77,0.00,,,0.00,Wunderground v.1.15,2013-07-27 23:10:00,
2013-07-27 19:20:00,73.5,66.9,29.91,SSE,156,6.0,7.0,80,0.00,,,0.00,Wunderground v.1.15,2013-07-27 23:20:00,
2013-07-27 19:30:00,72.7,67.2,29.91,SE,139,5.0,5.0,83,0.00,,,0.00,Wunderground v.1.15,2013-07-27 23:30:00,
2013-07-27 19:40:00,72.8,67.7,29.91,SE,135,5.0,9.0,84,0.00,,,0.00,Wunderground v.1.15,2013-07-27 23:40:00,
2013-07-27 19:50:00,72.9,67.8,29.91,SE,126,5.0,5.0,84,0.00,,,0.00,Wunderground v.1.15,2013-07-27 23:50:00,
2013-07-27 20:00:00,72.2,67.4,29.91,SE,138,4.0,4.0,85,0.00,,,0.00,Wunderground v.1.15,2013-07-28 00:00:00,
2013-07-27 20:10:00,71.7,67.6,29.91,South,176,4.0,4.0,87,0.00,,,0.00,Wunderground v.1.15,2013-07-28 00:10:00,
2013-07-27 20:20:00,71.7,68.0,29.91,South,172,4.0,4.0,88,0.00,,,0.00,Wunderground v.1.15,2013-07-28 00:20:00,
2013-07-27 20:30:00,71.9,68.2,29.91,SSW,208,4.0,4.0,88,0.00,,,0.00,Wunderground v.1.15,2013-07-28 00:30:00,
2013-07-27 20:40:00,71.7,68.0,29.91,South,183,4.0,4.0,88,0.00,,,0.00,Wunderground v.1.15,2013-07-28 00:40:00,
2013-07-27 20:50:00,71.1,67.7,29.91,SSE,147,4.0,4.0,89,0.00,,,0.00,Wunderground v.1.15,2013-07-28 00:50:00,
2013-07-27 21:00:00,70.7,67.6,29.91,SSE,166,3.0,3.0,90,0.00,,,0.00,Wunderground v.1.15,2013-07-28 01:00:00,
2013-07-27 21:10:00,70.6,67.5,29.92,South,174,2.0,3.0,90,0.00,,,0.00,Wunderground v.1.15,2013-07-28 01:10:00,
2013-07-27 21:20:00,70.4,67.3,29.92,SSE,154,2.0,2.0,90,0.00,,,0.00,Wunderground v.1.15,2013-07-28 01:20:00,
2013-07-27 21:30:00,70.1,67.0,29.92,SE,144,2.0,2.0,90,0.00,,,0.00,Wunderground v.1.15,2013-07-28 01:30:00,
2013-07-27 21:40:00,69.7,66.6,29.92,SSE,157,2.0,2.0,90,0.00,,,0.00,Wunderground v.1.15,2013-07-28 01:40:00,
2013-07-27 21:50:00,69.6,66.9,29.92,SSE,154,2.0,2.0,91,0.00,,,0.00,Wunderground v.1.15,2013-07-28 01:50:00,
2013-07-27 22:00:00,69.4,66.7,29.91,SSE,152,1.0,3.0,91,0.00,,,0.00,Wunderground v.1.15,2013-07-28 02:00:00,
2013-07-27 22:10:00,69.1,66.4,29.91,SSE,159,1.0,2.0,91,0.00,,,0.00,Wunderground v.1.15,2013-07-28 02:10:00,
2013-07-27 22:20:00,68.7,66.0,29.91,SSE,167,1.0,1.0,91,0.00,,,0.00,Wunderground v.1.15,2013-07-28 02:20:00,
2013-07-27 22:30:00,68.4,65.7,29.91,SSE,167,0.0,0.0,91,0.00,,,0.00,Wunderground v.1.15,2013-07-28 02:30:00,
2013-07-27 22:40:00,68.2,65.8,29.91,SSE,167,0.0,0.0,92,0.00,,,0.00,Wunderground v.1.15,2013-07-28 02:40:00,
2013-07-27 22:50:00,68.1,65.7,29.91,SSE,167,0.0,1.0,92,0.00,,,0.00,Wunderground v.1.15,2013-07-28 02:50:00,
2013-07-27 23:00:00,68.3,66.2,29.90,SSE,167,1.0,1.0,93,0.00,,,0.00,Wunderground v.1.15,2013-07-28 03:00:00,
2013-07-27 23:10:00,68.4,66.3,29.89,SSE,167,0.0,0.0,93,0.00,,,0.00,Wunderground v.1.15,2013-07-28 03:10:00,
2013-07-27 23:20:00,68.5,66.4,29.89,ESE,118,1.0,1.0,93,0.00,,,0.00,Wunderground v.1.15,2013-07-28 03:20:00,
2013-07-27 23:30:00,68.6,66.5,29.89,SE,141,0.0,0.0,93,0.00,,,0.00,Wunderground v.1.15,2013-07-28 03:30:00,
2013-07-27 23:40:00,68.6,66.5,29.89,SE,140,0.0,0.0,93,0.00,,,0.00,Wunderground v.1.15,2013-07-28 03:40:00,
2013-07-27 23:50:00,68.7,66.9,29.89,ESE,108,0.0,0.0,94,0.00,,,0.00,Wunderground v.1.15,2013-07-28 03:50:00,